Time;durP1;ratioP1;P1;durP2;ratioP2;P2;SDS_P1;SDS_P2;PMS_P1;PMS_P2;Temp;Humidity;BMP_temperature;BMP_pressure;BME280_temperature;BME280_humidity;BME280_pressure;Samples;Min_cycle;Max_cycle;Signal;HPM_P1;HPM_P2
2021/08/26 00:07:31;;;;;;;12.40;11.10;;;;;;;21.95;83.60;94695.00;5072073;28;20481;-81
2021/08/26 00:09:58;;;;;;;13.03;10.80;;;;;;;21.94;82.52;94692.53;5036484;28;20450;-81
2021/08/26 00:12:27;;;;;;;14.90;11.20;;;;;;;21.94;82.64;94690.69;5072213;28;21065;-81
2021/08/26 00:14:54;;;;;;;15.37;10.43;;;;;;;21.99;82.28;94690.09;5071812;28;20449;-82
2021/08/26 00:17:20;;;;;;;12.77;10.70;;;;;;;21.83;81.16;94687.81;5071843;28;20449;-81
2021/08/26 00:19:49;;;;;;;10.10;8.60;;;;;;;21.64;80.14;94692.09;5072043;28;20453;-81
2021/08/26 00:22:17;;;;;;;11.90;9.80;;;;;;;21.59;80.49;94690.03;5071929;28;20445;-81
2021/08/26 00:24:44;;;;;;;10.93;8.73;;;;;;;21.51;80.59;94687.56;5071886;28;20480;-82
2021/08/26 00:27:11;;;;;;;10.73;9.40;;;;;;;21.48;81.44;94698.63;5072019;28;20474;-82
2021/08/26 00:29:39;;;;;;;10.50;9.17;;;;;;;21.45;82.21;94691.03;5071585;28;20948;-81
2021/08/26 00:32:07;;;;;;;13.30;9.20;;;;;;;21.45;82.16;94688.38;5071675;28;20477;-81
2021/08/26 00:34:34;;;;;;;11.83;9.30;;;;;;;21.46;81.91;94682.00;5071720;28;20442;-81
2021/08/26 00:37:01;;;;;;;10.93;9.63;;;;;;;21.43;81.35;94674.41;5071639;28;20449;-81
2021/08/26 00:39:28;;;;;;;25.93;9.87;;;;;;;21.20;83.12;94674.72;5071686;28;20450;-82
2021/08/26 00:41:55;;;;;;;12.33;10.13;;;;;;;21.18;84.38;94681.28;5036549;28;20955;-81
2021/08/26 00:44:22;;;;;;;11.10;10.00;;;;;;;21.25;84.71;94676.81;5071527;28;20944;-81
2021/08/26 00:46:51;;;;;;;10.27;8.90;;;;;;;21.36;84.78;94676.22;5073977;28;20447;-81
2021/08/26 00:49:18;;;;;;;14.47;9.90;;;;;;;21.38;84.04;94671.50;5075200;28;20488;-81
2021/08/26 00:51:46;;;;;;;9.40;8.50;;;;;;;21.35;83.02;94669.22;5056305;28;20492;-81
2021/08/26 00:54:14;;;;;;;10.43;8.10;;;;;;;21.43;82.61;94670.91;5075134;28;20450;-80
2021/08/26 00:56:41;;;;;;;9.80;8.67;;;;;;;21.51;81.82;94681.38;5074955;28;20448;-81
2021/08/26 00:59:09;;;;;;;12.10;10.20;;;;;;;21.58;81.97;94677.69;5075187;28;20457;-81
2021/08/26 01:01:43;;;;;;;11.23;8.70;;;;;;;21.64;82.23;94689.41;5075005;28;20454;-81
2021/08/26 01:04:19;;;;;;;12.73;9.03;;;;;;;21.70;81.68;94680.63;5075197;28;20462;-81
2021/08/26 01:06:57;;;;;;;11.77;10.17;;;;;;;21.77;81.87;94669.94;5075231;28;20458;-82
2021/08/26 01:09:30;;;;;;;10.67;9.57;;;;;;;21.78;82.02;94676.91;5075015;28;20485;-81
2021/08/26 01:11:58;;;;;;;9.80;8.80;;;;;;;21.78;82.43;94684.94;5075092;28;20447;-81
2021/08/26 01:14:26;;;;;;;9.90;8.90;;;;;;;21.76;83.01;94676.31;5074842;28;20446;-81
2021/08/26 01:16:53;;;;;;;12.80;9.60;;;;;;;21.77;82.50;94686.78;5074905;28;20449;-81
2021/08/26 01:19:22;;;;;;;13.37;10.07;;;;;;;21.74;82.17;94678.34;5074797;28;20530;-80
2021/08/26 01:21:49;;;;;;;11.90;10.47;;;;;;;21.68;82.89;94676.47;5075024;28;20822;-81
2021/08/26 01:24:18;;;;;;;12.80;11.03;;;;;;;21.67;82.86;94661.47;5074690;28;20451;-80
2021/08/26 01:26:53;;;;;;;10.37;8.67;;;;;;;21.41;82.86;94655.09;5074760;28;20449;-81
2021/08/26 01:29:21;;;;;;;10.43;9.37;;;;;;;21.35;82.92;94666.56;5074610;28;20524;-80
2021/08/26 01:31:49;;;;;;;14.97;9.77;;;;;;;21.39;83.92;94664.31;5074725;28;20530;-81
2021/08/26 01:34:17;;;;;;;13.80;9.70;;;;;;;21.38;83.63;94658.13;5074213;28;20537;-82
2021/08/26 01:36:45;;;;;;;13.67;9.70;;;;;;;21.40;83.43;94655.28;5074606;28;20454;-81
2021/08/26 01:39:14;;;;;;;10.00;8.07;;;;;;;21.40;83.63;94653.44;5074379;28;20441;-81
2021/08/26 01:41:46;;;;;;;19.73;9.57;;;;;;;21.45;84.30;94656.31;5074303;28;20457;-83
2021/08/26 01:44:15;;;;;;;9.70;8.50;;;;;;;21.48;84.40;94666.59;5074329;28;20447;-83
2021/08/26 01:46:42;;;;;;;12.03;8.00;;;;;;;21.54;83.95;94664.97;5074167;28;20448;-82
2021/08/26 01:49:09;;;;;;;13.67;9.43;;;;;;;21.55;83.01;94670.09;5074282;28;20569;-82
2021/08/26 01:51:37;;;;;;;9.13;8.27;;;;;;;21.56;83.30;94663.72;5038427;28;20516;-82
2021/08/26 01:54:04;;;;;;;11.90;8.87;;;;;;;21.59;82.68;94662.50;5073982;28;20450;-83
2021/08/26 01:56:31;;;;;;;9.83;8.93;;;;;;;21.57;82.90;94668.03;5074333;28;20533;-82
2021/08/26 01:59:00;;;;;;;18.27;9.27;;;;;;;21.58;83.36;94677.69;5073539;28;21037;-82
2021/08/26 02:01:27;;;;;;;10.83;7.80;;;;;;;21.61;82.79;94671.13;5022372;28;20946;-82
2021/08/26 02:03:55;;;;;;;16.10;9.27;;;;;;;21.58;82.71;94655.50;5074395;28;20534;-83
2021/08/26 02:06:22;;;;;;;12.57;7.87;;;;;;;21.58;82.49;94656.34;5074064;28;20447;-82
2021/08/26 02:08:49;;;;;;;10.37;8.90;;;;;;;21.60;83.12;94666.81;5073832;28;20482;-80
2021/08/26 02:11:16;;;;;;;11.07;8.90;;;;;;;21.61;82.56;94663.13;5073683;28;20523;-83
2021/08/26 02:13:43;;;;;;;12.37;8.63;;;;;;;21.61;82.25;94661.28;5073752;28;20802;-83
2021/08/26 02:16:14;;;;;;;11.30;7.83;;;;;;;21.62;81.76;94667.44;5073872;28;20449;-83
2021/08/26 02:18:41;;;;;;;16.13;9.63;;;;;;;21.59;82.03;94663.31;5073696;28;20502;-83
2021/08/26 02:21:08;;;;;;;9.30;7.73;;;;;;;21.54;81.90;94652.44;5073705;28;20448;-83
2021/08/26 02:23:35;;;;;;;11.57;8.03;;;;;;;21.60;82.37;94662.28;5038532;28;20446;-82
2021/08/26 02:26:02;;;;;;;9.07;8.17;;;;;;;21.62;81.88;94654.91;5073300;28;20964;-83
2021/08/26 02:28:29;;;;;;;11.53;7.70;;;;;;;21.62;81.08;94648.75;5073501;28;20492;-82
2021/08/26 02:30:56;;;;;;;9.83;8.07;;;;;;;21.59;81.67;94654.50;5073205;28;20459;-83
2021/08/26 02:33:24;;;;;;;10.37;9.03;;;;;;;21.52;82.22;94645.66;5073721;28;20444;-83
2021/08/26 02:35:51;;;;;;;14.13;8.10;;;;;;;21.40;82.40;94648.13;5073412;28;20446;-82
2021/08/26 02:38:18;;;;;;;9.53;8.50;;;;;;;21.39;83.13;94643.75;5073246;28;20453;-82
2021/08/26 02:40:45;;;;;;;12.10;7.93;;;;;;;21.41;82.96;94649.75;5073123;28;20446;-82
2021/08/26 02:43:12;;;;;;;8.90;7.73;;;;;;;21.44;83.23;94649.34;5073425;28;20522;-82
2021/08/26 02:45:39;;;;;;;10.73;8.23;;;;;;;21.48;82.87;94645.25;5021903;28;20442;-82
2021/08/26 02:48:07;;;;;;;9.30;8.40;;;;;;;21.53;82.64;94650.78;5073026;28;20496;-83
2021/08/26 02:50:35;;;;;;;13.30;8.80;;;;;;;21.54;82.22;94655.09;5072963;28;20438;-82
2021/08/26 02:53:02;;;;;;;10.00;8.80;;;;;;;21.51;82.75;94638.66;5021295;28;20912;-82
2021/08/26 02:55:29;;;;;;;7.83;7.13;;;;;;;21.53;83.01;94650.78;5072963;28;20438;-83
2021/08/26 02:57:56;;;;;;;8.23;7.10;;;;;;;21.55;82.62;94643.41;5073006;28;20462;-83
2021/08/26 03:00:23;;;;;;;10.30;8.07;;;;;;;21.51;81.59;94646.69;5072891;28;20803;-82
2021/08/26 03:02:50;;;;;;;11.87;7.93;;;;;;;21.52;81.71;94645.66;5072720;28;20488;-82
2021/08/26 03:05:17;;;;;;;11.33;7.07;;;;;;;21.50;82.08;94647.72;5072790;28;20800;-83
2021/08/26 03:07:45;;;;;;;12.10;8.67;;;;;;;21.29;81.51;94644.16;5072368;28;20886;-83
2021/08/26 03:10:12;;;;;;;10.93;8.63;;;;;;;21.19;82.13;94632.22;5052670;28;20509;-82
2021/08/26 03:12:39;;;;;;;11.20;8.90;;;;;;;21.23;82.82;94644.97;5072311;28;20445;-80
2021/08/26 03:15:07;;;;;;;8.90;7.77;;;;;;;21.23;83.07;94636.13;5020719;28;20509;-83
2021/08/26 03:17:34;;;;;;;12.33;9.03;;;;;;;21.25;83.48;94639.44;5037638;28;20834;-82
2021/08/26 03:20:01;;;;;;;13.40;8.90;;;;;;;21.31;83.88;94644.78;5072575;28;20445;-83
2021/08/26 03:22:28;;;;;;;15.50;8.10;;;;;;;21.38;83.48;94644.78;5072378;28;20529;-83
2021/08/26 03:24:57;;;;;;;13.83;7.27;;;;;;;21.41;82.73;94646.25;5072277;28;20593;-83
2021/08/26 03:27:24;;;;;;;9.47;7.00;;;;;;;21.42;82.41;94651.41;5072677;28;20517;-82
2021/08/26 03:29:51;;;;;;;10.27;7.00;;;;;;;21.42;83.27;94646.06;5072310;28;20551;-82
2021/08/26 03:32:18;;;;;;;8.73;7.90;;;;;;;21.34;82.58;94646.22;5072206;28;20443;-82
2021/08/26 03:34:45;;;;;;;8.13;7.20;;;;;;;21.26;82.67;94639.22;5072429;28;20811;-83
2021/08/26 03:37:12;;;;;;;9.00;7.47;;;;;;;21.24;83.63;94643.13;5072079;28;20458;-83
2021/08/26 03:39:39;;;;;;;12.27;9.07;;;;;;;21.28;83.92;94649.72;5072482;28;20525;-82
2021/08/26 03:42:08;;;;;;;18.40;8.40;;;;;;;21.32;83.96;94642.94;5037271;28;20446;-81
2021/08/26 03:44:34;;;;;;;9.27;8.37;;;;;;;21.35;83.13;94639.84;5073205;28;20442;-80
2021/08/26 03:47:02;;;;;;;11.27;6.87;;;;;;;21.28;82.75;94626.50;5073738;28;20504;-80
2021/08/26 03:49:29;;;;;;;10.73;7.53;;;;;;;21.09;82.86;94637.09;5073707;28;20556;-81
2021/08/26 03:51:56;;;;;;;11.60;7.03;;;;;;;20.93;82.96;94640.94;5073190;28;20473;-81
2021/08/26 04:01:08;;;;;;;9.43;7.43;;;;;;;20.63;85.66;94640.41;5072487;28;20486;-82
2021/08/26 04:03:35;;;;;;;13.67;7.70;;;;;;;20.57;86.77;94635.88;5072960;28;20917;-80
2021/08/26 04:06:02;;;;;;;15.47;8.30;;;;;;;20.51;86.61;94631.31;5038585;28;20464;-80
2021/08/26 04:08:29;;;;;;;13.13;7.37;;;;;;;20.48;86.67;94629.03;5072910;28;20547;-81
2021/08/26 04:10:56;;;;;;;10.93;8.20;;;;;;;20.48;87.64;94632.53;5072888;28;20526;-81
2021/08/26 04:13:24;;;;;;;10.27;9.10;;;;;;;20.48;87.57;94632.53;5072578;28;20525;-83
2021/08/26 04:15:50;;;;;;;12.70;8.70;;;;;;;20.45;87.98;94637.44;5072970;28;20209;-82
2021/08/26 04:18:19;;;;;;;11.33;7.90;;;;;;;20.36;88.06;94632.25;5021744;28;20445;-84
2021/08/26 04:20:49;;;;;;;11.47;8.73;;;;;;;20.32;88.23;94633.66;5073579;28;20515;-83
2021/08/26 04:23:16;;;;;;;14.73;9.57;;;;;;;20.30;87.92;94643.69;5076786;28;20512;-83
2021/08/26 04:25:43;;;;;;;8.60;7.60;;;;;;;19.84;85.44;94645.19;5076576;28;20998;-82
2021/08/26 04:28:10;;;;;;;9.00;7.47;;;;;;;19.66;87.10;94640.31;5076911;28;20433;-83
2021/08/26 04:30:37;;;;;;;12.50;8.07;;;;;;;19.63;87.65;94630.88;5076825;28;20539;-81
2021/08/26 04:33:06;;;;;;;9.27;8.37;;;;;;;19.48;88.41;94640.75;5077286;28;20433;-83
2021/08/26 04:35:34;;;;;;;10.93;8.90;;;;;;;19.39;88.74;94648.06;5076967;28;20443;-82
2021/08/26 04:38:01;;;;;;;9.13;8.23;;;;;;;19.48;89.33;94643.41;5076777;28;20571;-83
2021/08/26 04:47:10;;;;;;;10.10;9.00;;;;;;;19.58;89.13;94643.13;5075499;28;20981;-84
2021/08/26 04:49:37;;;;;;;9.67;8.77;;;;;;;19.58;89.61;94635.13;5041366;28;20483;-82
2021/08/26 04:52:06;;;;;;;13.40;8.40;;;;;;;19.65;89.03;94634.16;5076341;28;20646;-83
2021/08/26 04:54:33;;;;;;;12.20;9.77;;;;;;;19.50;89.26;94634.22;5076119;28;20429;-83
2021/08/26 05:03:57;;;;;;;8.70;7.90;;;;;;;19.78;95.53;94628.97;5076089;28;20533;-83
2021/08/26 05:06:23;;;;;;;9.73;8.23;;;;;;;19.83;93.04;94620.41;5075826;28;20450;-83
2021/08/26 05:08:52;;;;;;;8.73;7.77;;;;;;;19.77;90.39;94614.00;5024468;28;20853;-82
2021/08/26 05:11:20;;;;;;;15.33;9.40;;;;;;;19.77;90.86;94613.19;5024854;28;20441;-83
2021/08/26 05:13:47;;;;;;;10.87;9.03;;;;;;;19.70;89.16;94621.13;5075861;28;20459;-84
2021/08/26 05:16:14;;;;;;;12.07;9.30;;;;;;;19.75;90.37;94624.03;5075965;28;20444;-81
2021/08/26 05:18:41;;;;;;;10.17;9.10;;;;;;;19.86;90.12;94614.69;5040988;28;20540;-83
2021/08/26 05:21:08;;;;;;;11.00;9.53;;;;;;;19.54;90.96;94616.06;5075911;28;20453;-82
2021/08/26 05:23:35;;;;;;;12.40;10.53;;;;;;;19.74;90.88;94630.38;5075728;28;20913;-83
2021/08/26 05:26:03;;;;;;;10.43;9.33;;;;;;;19.83;90.56;94635.56;5075947;28;20444;-82
2021/08/26 05:28:31;;;;;;;11.80;9.37;;;;;;;19.78;90.02;94634.28;5057482;28;20962;-82
2021/08/26 05:30:57;;;;;;;10.97;8.53;;;;;;;19.76;89.61;94644.31;5076109;28;20448;-83
2021/08/26 05:33:24;;;;;;;10.47;9.37;;;;;;;19.77;90.18;94637.16;5039509;28;20450;-82
2021/08/26 05:35:51;;;;;;;9.73;8.77;;;;;;;19.82;92.28;94634.72;5075571;28;20497;-83
2021/08/26 05:38:18;;;;;;;12.67;9.13;;;;;;;19.84;91.00;94642.53;5075849;28;20519;-82
2021/08/26 05:47:30;;;;;;;16.00;9.10;;;;;;;19.13;91.62;94623.84;5074230;28;20444;-82
2021/08/26 05:49:57;;;;;;;55.13;14.00;;;;;;;19.17;94.20;94622.44;5075211;28;20505;-82
2021/08/26 05:52:24;;;;;;;28.77;11.23;;;;;;;18.96;95.42;94604.63;5075499;28;20578;-84
2021/08/26 05:54:51;;;;;;;12.77;9.07;;;;;;;18.53;99.92;94587.75;5075039;28;20447;-82
2021/08/26 05:57:18;;;;;;;11.73;10.43;;;;;;;18.17;100.00;94577.88;5075645;28;20438;-82
2021/08/26 05:59:45;;;;;;;13.67;9.93;;;;;;;18.31;100.00;94591.34;5024018;28;20465;-82
2021/08/26 06:02:12;;;;;;;13.83;9.77;;;;;;;18.45;100.00;94612.56;5075008;28;20914;-81
2021/08/26 06:04:40;;;;;;;10.57;9.47;;;;;;;18.67;100.00;94607.34;5074810;28;20437;-82
2021/08/26 06:07:07;;;;;;;13.53;9.80;;;;;;;18.82;100.00;94613.47;5075192;28;20464;-82
2021/08/26 06:09:34;;;;;;;11.93;8.70;;;;;;;19.04;99.75;94615.13;5075069;28;20897;-82
2021/08/26 06:12:01;;;;;;;12.60;9.00;;;;;;;19.30;100.00;94614.59;5023818;28;20460;-82
2021/08/26 06:14:28;;;;;;;12.40;8.90;;;;;;;19.55;100.00;94608.91;5075299;28;20443;-82
2021/08/26 06:16:55;;;;;;;10.97;8.20;;;;;;;19.86;97.37;94604.03;5074934;28;20520;-83
2021/08/26 06:19:21;;;;;;;10.87;8.77;;;;;;;20.04;95.30;94614.22;5073719;28;20932;-82
2021/08/26 06:21:50;;;;;;;10.50;9.10;;;;;;;20.22;93.27;94627.00;5022114;28;20950;-82
2021/08/26 06:24:17;;;;;;;11.40;9.07;;;;;;;20.25;91.12;94638.13;5038697;28;20527;-82
2021/08/26 06:26:44;;;;;;;11.73;9.07;;;;;;;20.28;90.52;94632.41;5073855;28;20463;-82
2021/08/26 06:29:11;;;;;;;13.07;8.50;;;;;;;20.24;88.27;94631.16;5073858;28;20506;-82
2021/08/26 06:31:39;;;;;;;10.47;9.40;;;;;;;20.29;87.82;94634.06;5073622;28;20934;-82
2021/08/26 06:34:06;;;;;;;9.03;8.13;;;;;;;20.41;89.03;94639.69;5073570;28;20440;-82
2021/08/26 06:36:33;;;;;;;11.10;9.07;;;;;;;20.41;89.56;94627.16;5073854;28;20472;-82
2021/08/26 06:39:01;;;;;;;13.43;8.77;;;;;;;20.40;87.39;94625.53;5073424;28;20459;-82
2021/08/26 06:41:28;;;;;;;9.23;8.20;;;;;;;20.38;88.13;94600.88;5073714;28;20524;-82
2021/08/26 06:43:55;;;;;;;11.40;10.13;;;;;;;20.45;88.24;94597.44;5073184;28;20813;-82
2021/08/26 06:46:22;;;;;;;11.73;9.13;;;;;;;20.49;87.56;94598.69;5038477;28;20437;-82
2021/08/26 06:48:50;;;;;;;9.63;8.47;;;;;;;20.64;86.16;94605.56;5073825;28;20539;-82
2021/08/26 06:51:18;;;;;;;9.33;7.53;;;;;;;20.80;84.21;94622.22;5073825;28;20810;-81
2021/08/26 06:53:45;;;;;;;8.70;7.80;;;;;;;20.85;84.78;94625.94;5073878;28;20454;-81
2021/08/26 06:56:15;;;;;;;10.20;7.80;;;;;;;20.85;85.35;94617.94;5073533;28;20540;-82
2021/08/26 06:58:42;;;;;;;8.80;7.50;;;;;;;20.93;86.69;94619.63;5073097;28;20457;-82
2021/08/26 07:01:09;;;;;;;7.87;7.10;;;;;;;20.90;86.62;94604.00;5073418;28;20477;-81
2021/08/26 07:03:36;;;;;;;7.37;6.50;;;;;;;20.94;85.27;94611.41;5073465;28;20451;-82
2021/08/26 07:06:03;;;;;;;10.07;7.13;;;;;;;20.91;83.10;94609.13;5073425;28;20445;-81
2021/08/26 07:08:30;;;;;;;8.70;7.40;;;;;;;20.90;84.25;94618.16;5073234;28;20440;-82
2021/08/26 07:10:56;;;;;;;12.20;6.37;;;;;;;20.92;83.79;94612.63;5075974;28;20491;-82
2021/08/26 07:13:25;;;;;;;10.83;7.00;;;;;;;20.93;85.27;94616.94;5028942;28;20474;-82
2021/08/26 07:15:52;;;;;;;7.00;6.30;;;;;;;20.87;83.13;94618.56;5075834;28;20528;-82
2021/08/26 07:18:19;;;;;;;9.47;7.50;;;;;;;20.84;82.85;94618.97;5073264;28;20473;-82
2021/08/26 07:20:46;;;;;;;9.83;8.83;;;;;;;20.91;82.96;94627.00;5073067;28;20804;-82
2021/08/26 07:23:13;;;;;;;13.77;7.80;;;;;;;20.98;84.47;94623.31;5072534;28;20798;-83
2021/08/26 07:25:40;;;;;;;7.43;6.73;;;;;;;21.00;84.64;94615.94;5073192;28;20452;-83
2021/08/26 07:28:07;;;;;;;9.77;7.77;;;;;;;20.94;82.94;94622.06;5072805;28;20837;-82
2021/08/26 07:30:36;;;;;;;9.73;6.80;;;;;;;20.87;81.55;94623.09;5072700;28;20504;-82
2021/08/26 07:33:03;;;;;;;7.00;6.30;;;;;;;20.82;81.49;94618.34;5037541;28;20465;-82
2021/08/26 07:35:30;;;;;;;9.17;6.20;;;;;;;20.85;84.02;94611.78;5073038;28;20441;-82
2021/08/26 07:37:58;;;;;;;14.40;7.37;;;;;;;20.84;83.72;94589.63;5072469;28;20925;-83
2021/08/26 07:40:25;;;;;;;10.37;8.07;;;;;;;20.86;83.93;94600.09;5072510;28;20956;-82
2021/08/26 07:42:52;;;;;;;8.97;7.30;;;;;;;20.98;83.82;94609.97;5072575;28;20456;-82
2021/08/26 07:45:19;;;;;;;9.10;8.10;;;;;;;21.13;84.54;94612.50;5073236;28;20528;-82
2021/08/26 07:47:47;;;;;;;8.60;7.70;;;;;;;21.17;82.51;94611.06;5072754;28;20442;-82
2021/08/26 07:50:14;;;;;;;8.60;7.80;;;;;;;21.15;81.32;94617.63;5072406;28;20484;-83
2021/08/26 07:52:41;;;;;;;17.80;10.30;;;;;;;21.08;81.75;94612.25;5072171;28;20575;-82
2021/08/26 07:55:08;;;;;;;13.20;8.60;;;;;;;21.02;81.99;94623.75;5072205;28;20516;-82
2021/08/26 07:57:36;;;;;;;12.03;8.40;;;;;;;20.97;80.45;94626.19;5072079;28;20441;-83
2021/08/26 08:00:03;;;;;;;12.77;8.63;;;;;;;20.91;80.99;94638.47;5037111;28;20523;-82
2021/08/26 08:02:30;;;;;;;9.80;8.80;;;;;;;20.87;82.10;94639.91;5072431;28;20441;-82
2021/08/26 08:04:58;;;;;;;9.93;8.90;;;;;;;20.87;81.29;94631.91;5072233;28;20524;-82
2021/08/26 08:07:25;;;;;;;11.40;9.40;;;;;;;20.84;82.37;94631.50;5072543;28;20962;-82
2021/08/26 08:09:52;;;;;;;11.77;10.33;;;;;;;20.79;83.03;94620.56;5072259;28;20924;-82
2021/08/26 08:12:19;;;;;;;11.13;9.90;;;;;;;20.78;83.72;94619.75;5021213;28;20874;-83
2021/08/26 08:14:46;;;;;;;13.07;10.50;;;;;;;20.84;83.93;94604.81;5072485;28;20525;-83
2021/08/26 08:17:13;;;;;;;11.93;10.63;;;;;;;20.91;85.67;94582.47;5037126;28;20512;-83
2021/08/26 08:19:40;;;;;;;14.63;10.30;;;;;;;21.05;84.52;94585.97;5072453;28;20467;-82
2021/08/26 08:22:08;;;;;;;13.10;10.07;;;;;;;21.13;82.84;94580.47;5072241;28;20545;-82
2021/08/26 08:24:37;;;;;;;11.57;10.00;;;;;;;21.25;83.51;94591.41;5072340;28;20802;-83
2021/08/26 08:27:04;;;;;;;20.50;17.70;;;;;;;21.45;82.06;94592.25;5072460;28;20438;-83
2021/08/26 08:29:31;;;;;;;15.43;11.17;;;;;;;21.51;80.79;94594.09;5072103;28;20457;-82
2021/08/26 08:31:58;;;;;;;13.30;9.50;;;;;;;21.62;80.42;94598.81;5072531;28;20457;-82
2021/08/26 08:34:27;;;;;;;17.03;11.10;;;;;;;21.71;81.61;94601.31;5072533;28;20447;-82
2021/08/26 08:36:54;;;;;;;15.23;11.10;;;;;;;21.87;80.65;94595.53;5072146;28;20455;-82
2021/08/26 08:39:23;;;;;;;14.60;10.33;;;;;;;21.96;79.85;94594.28;5072456;28;20436;-83
2021/08/26 08:41:53;;;;;;;9.97;8.97;;;;;;;21.94;78.61;94599.84;5072352;28;20450;-82
2021/08/26 08:44:20;;;;;;;12.23;9.07;;;;;;;21.94;78.66;94599.84;5072164;28;20447;-82
2021/08/26 08:46:49;;;;;;;15.87;9.67;;;;;;;21.95;78.13;94604.16;5071977;28;20814;-83
2021/08/26 08:49:20;;;;;;;14.13;11.33;;;;;;;21.99;79.34;94614.47;5072218;28;20463;-82
2021/08/26 08:51:48;;;;;;;26.13;11.80;;;;;;;21.96;78.60;94613.00;5071505;28;20481;-83
2021/08/26 08:54:15;;;;;;;15.63;11.83;;;;;;;21.89;79.08;94614.84;5072247;28;20459;-83
2021/08/26 08:56:43;;;;;;;14.57;10.70;;;;;;;21.88;80.03;94608.69;5072110;28;20455;-83
2021/08/26 08:59:10;;;;;;;11.50;9.83;;;;;;;21.84;79.57;94617.31;5036905;28;20465;-83
2021/08/26 09:01:37;;;;;;;12.73;11.00;;;;;;;21.77;80.04;94619.19;5071911;28;20454;-82
2021/08/26 09:04:06;;;;;;;17.33;10.67;;;;;;;21.63;79.24;94621.81;5072002;28;20442;-82
2021/08/26 09:06:40;;;;;;;11.63;10.50;;;;;;;21.50;79.13;94621.81;5020808;28;20443;-83
2021/08/26 09:09:08;;;;;;;25.30;11.50;;;;;;;21.42;80.89;94629.22;5074569;28;20788;-82
2021/08/26 09:11:36;;;;;;;16.60;11.40;;;;;;;21.37;82.28;94626.31;5075712;28;20489;-83
2021/08/26 09:14:12;;;;;;;18.50;10.87;;;;;;;21.40;82.51;94613.41;5023835;28;20836;-83
2021/08/26 09:16:42;;;;;;;17.03;12.60;;;;;;;21.43;83.12;94617.50;5075221;28;20460;-82
2021/08/26 09:19:34;;;;;;;19.90;11.23;;;;;;;21.45;83.13;94631.47;5075597;28;20462;-82
2021/08/26 09:22:03;;;;;;;11.80;10.50;;;;;;;21.50;84.40;94627.16;5013343;28;20511;-83
2021/08/26 09:24:44;;;;;;;13.73;11.63;;;;;;;21.53;84.44;94600.06;4980696;28;20877;-82
2021/08/26 09:27:11;;;;;;;15.60;12.50;;;;;;;21.62;82.23;94608.69;5013216;28;20948;-83
2021/08/26 09:29:59;;;;;;;12.33;10.60;;;;;;;21.59;80.55;94611.75;5012785;28;20452;-82
2021/08/26 09:32:33;;;;;;;18.20;11.97;;;;;;;21.65;82.18;94617.09;5013368;28;20446;-82
2021/08/26 09:35:19;;;;;;;18.33;12.30;;;;;;;21.75;83.58;94624.72;5013459;28;20541;-82
2021/08/26 09:37:51;;;;;;;19.07;12.00;;;;;;;21.74;82.43;94628.44;5013262;28;20961;-83
2021/08/26 09:40:19;;;;;;;17.70;12.43;;;;;;;21.73;81.78;94636.66;5013178;28;20523;-82
2021/08/26 09:42:56;;;;;;;15.13;12.90;;;;;;;21.69;82.80;94630.91;5012874;28;21036;-83
2021/08/26 09:45:27;;;;;;;15.93;11.80;;;;;;;21.61;82.49;94639.91;5013171;28;20440;-82
2021/08/26 09:48:05;;;;;;;17.33;12.60;;;;;;;21.59;82.52;94649.16;5012992;28;20451;-83
2021/08/26 09:50:41;;;;;;;14.10;12.27;;;;;;;21.53;80.90;94636.63;5012693;28;20516;-82
2021/08/26 09:53:09;;;;;;;17.50;12.43;;;;;;;21.29;82.88;94640.66;5012518;28;20479;-82
2021/08/26 09:56:03;;;;;;;13.37;11.93;;;;;;;21.31;83.86;94643.97;5012647;28;20523;-83
2021/08/26 09:58:31;;;;;;;20.27;13.00;;;;;;;21.20;83.97;94639.19;5007903;28;20832;-82
2021/08/26 10:01:12;;;;;;;15.00;12.70;;;;;;;21.23;84.96;94631.63;5074659;28;20850;-82
2021/08/26 10:03:39;;;;;;;18.50;12.50;;;;;;;21.23;85.63;94617.44;5074763;28;20883;-82
2021/08/26 10:06:06;;;;;;;16.27;11.90;;;;;;;21.22;85.23;94623.81;5074565;28;20529;-81
2021/08/26 10:08:34;;;;;;;19.17;12.63;;;;;;;21.30;85.64;94623.63;5074738;28;20802;-82
2021/08/26 10:11:02;;;;;;;15.77;12.03;;;;;;;21.31;85.27;94631.44;5074242;28;20861;-82
2021/08/26 10:13:30;;;;;;;17.00;13.07;;;;;;;21.21;84.41;94632.84;5074117;28;20451;-82
2021/08/26 10:15:59;;;;;;;15.00;12.30;;;;;;;21.27;84.72;94626.72;5074410;28;20449;-82
2021/08/26 10:18:28;;;;;;;19.53;13.10;;;;;;;21.33;84.69;94625.91;5073789;28;20446;-82
2021/08/26 10:20:55;;;;;;;17.80;12.87;;;;;;;21.42;85.23;94624.69;5074066;28;20450;-83
2021/08/26 10:23:23;;;;;;;13.40;12.00;;;;;;;21.52;85.04;94619.78;5073848;28;20453;-82
2021/08/26 10:25:51;;;;;;;18.70;13.87;;;;;;;21.61;85.13;94626.56;5039130;28;20531;-82
2021/08/26 10:28:19;;;;;;;13.03;11.60;;;;;;;21.70;85.29;94618.38;5074328;28;20824;-82
2021/08/26 10:30:46;;;;;;;20.03;14.50;;;;;;;21.74;84.59;94617.75;5074023;28;20585;-83
2021/08/26 10:33:14;;;;;;;14.90;12.97;;;;;;;21.72;82.66;94618.97;5073909;28;21041;-82
2021/08/26 10:36:05;;;;;;;21.27;13.27;;;;;;;21.80;82.36;94610.75;5074170;28;20478;-82
2021/08/26 10:38:33;;;;;;;21.77;13.00;;;;;;;21.89;84.31;94610.31;5073922;28;20512;-83
2021/08/26 10:41:21;;;;;;;17.70;14.13;;;;;;;21.93;83.05;94622.25;5073644;28;20965;-82
2021/08/26 10:43:57;;;;;;;16.90;13.97;;;;;;;22.00;81.38;94621.44;5073845;28;20945;-82
2021/08/26 10:46:48;;;;;;;18.87;13.83;;;;;;;22.11;81.11;94613.63;5021889;28;20841;-82
2021/08/26 10:49:16;;;;;;;14.67;13.17;;;;;;;21.80;79.39;94619.59;5073583;28;20459;-82
2021/08/26 10:51:45;;;;;;;16.50;14.60;;;;;;;21.78;80.20;94615.47;5073531;28;20487;-82
2021/08/26 10:54:31;;;;;;;22.97;14.23;;;;;;;21.91;80.89;94610.13;5078825;28;20532;-82
2021/08/26 10:57:19;;;;;;;14.77;12.83;;;;;;;21.92;81.47;94619.78;5089986;28;20442;-83
2021/08/26 10:59:46;;;;;;;20.10;14.83;;;;;;;21.95;81.39;94624.72;5076974;28;20529;-83
2021/08/26 11:02:39;;;;;;;17.13;13.37;;;;;;;21.94;81.35;94617.72;5021497;28;20547;-83
2021/08/26 11:05:34;;;;;;;18.33;14.50;;;;;;;21.95;83.62;94614.03;5072887;28;20531;-83
2021/08/26 11:08:22;;;;;;;16.93;14.60;;;;;;;21.99;81.34;94607.25;5011340;28;21117;-82
2021/08/26 11:10:49;;;;;;;19.73;15.20;;;;;;;22.04;80.25;94610.16;5011367;28;20515;-82
2021/08/26 11:13:29;;;;;;;17.20;14.13;;;;;;;21.94;80.90;94607.03;5011233;28;20459;-83
2021/08/26 11:15:57;;;;;;;18.50;14.60;;;;;;;21.81;81.23;94601.72;5011166;28;20455;-83
2021/08/26 11:18:27;;;;;;;20.53;15.60;;;;;;;21.82;81.18;94598.84;5010996;28;20453;-82
2021/08/26 11:20:54;;;;;;;23.93;15.27;;;;;;;21.68;80.98;94585.66;5011059;28;20467;-82
2021/08/26 11:23:44;;;;;;;18.00;15.00;;;;;;;21.58;82.42;94578.91;4994389;28;20893;-82
2021/08/26 11:26:44;;;;;;;21.23;17.10;;;;;;;21.55;82.02;94576.63;5011099;28;20815;-83
2021/08/26 11:29:36;;;;;;;21.00;16.63;;;;;;;21.58;80.58;94576.22;4971753;28;20501;-83
2021/08/26 11:32:05;;;;;;;19.57;16.47;;;;;;;21.55;81.18;94568.63;4913634;29;20497;-83
2021/08/26 11:34:34;;;;;;;20.77;15.80;;;;;;;21.59;81.97;94561.84;4914340;29;20517;-83
2021/08/26 11:37:04;;;;;;;24.83;16.70;;;;;;;21.69;82.80;94566.78;4914296;29;20500;-82
2021/08/26 11:39:35;;;;;;;20.97;15.30;;;;;;;21.79;82.72;94566.38;4914619;29;20462;-82
2021/08/26 11:42:03;;;;;;;23.37;17.17;;;;;;;21.88;81.82;94560.59;4914532;29;21009;-83
2021/08/26 11:44:31;;;;;;;26.40;17.23;;;;;;;21.92;81.76;94561.00;4923165;29;20992;-83
2021/08/26 11:46:59;;;;;;;21.43;18.40;;;;;;;21.99;80.99;94571.69;4952632;29;20512;-83
2021/08/26 11:49:33;;;;;;;21.80;18.10;;;;;;;21.98;80.85;94564.72;4920350;29;20491;-83
2021/08/26 11:52:09;;;;;;;24.20;19.57;;;;;;;22.07;81.27;94542.09;4951867;28;20502;-83
2021/08/26 11:54:39;;;;;;;19.43;16.87;;;;;;;22.01;80.32;94538.41;4952370;29;20448;-82
2021/08/26 11:57:07;;;;;;;24.87;17.10;;;;;;;22.04;80.84;94530.00;4952228;29;20452;-82
2021/08/26 11:59:35;;;;;;;23.43;17.33;;;;;;;22.11;80.36;94532.63;4952131;29;20594;-83
2021/08/26 12:02:19;;;;;;;25.37;18.33;;;;;;;22.14;80.33;94533.03;4952256;29;20532;-82
2021/08/26 12:04:48;;;;;;;23.60;19.67;;;;;;;22.25;80.32;94531.56;4990909;28;20454;-82
2021/08/26 12:07:24;;;;;;;21.30;18.73;;;;;;;22.39;82.11;94524.31;4990862;28;20450;-82